Time;durP1;ratioP1;P1;durP2;ratioP2;P2;SDS_P1;SDS_P2;PMS_P1;PMS_P2;Temp;Humidity;BMP_temperature;BMP_pressure;BME280_temperature;BME280_humidity;BME280_pressure;Samples;Min_cycle;Max_cycle;Signal;HPM_P1;HPM_P2
2021/11/14 00:01:04;;;;;;;98.55;34.35;;;;;;;8.08;69.96;100561.44;4359006;32;34568;-89
2021/11/14 00:03:34;;;;;;;91.15;33.28;;;;;;;8.06;69.88;100563.16;4359279;32;36004;-89
2021/11/14 00:06:04;;;;;;;92.53;33.83;;;;;;;8.15;69.59;100561.38;4337236;32;304665;-88
2021/11/14 00:08:33;;;;;;;91.97;35.10;;;;;;;8.21;69.32;100557.03;4346910;32;34832;-89
2021/11/14 00:11:09;;;;;;;90.95;32.35;;;;;;;8.10;69.72;100552.75;4346789;32;32864;-87
2021/11/14 00:13:40;;;;;;;95.95;34.72;;;;;;;8.11;70.22;100559.69;4346472;32;34061;-88
2021/11/14 00:16:10;;;;;;;89.15;34.00;;;;;;;7.92;70.45;100558.94;4332002;33;33232;-88
2021/11/14 00:18:44;;;;;;;92.22;34.03;;;;;;;8.09;69.71;100552.78;4331505;33;33846;-89
2021/11/14 00:21:18;;;;;;;95.70;34.67;;;;;;;8.01;70.19;100550.25;4320145;33;33307;-87
2021/11/14 00:23:50;;;;;;;91.93;33.85;;;;;;;8.32;69.15;100557.78;4331193;33;35099;-89
2021/11/14 00:26:25;;;;;;;92.82;33.60;;;;;;;8.34;68.76;100556.88;4319977;33;33253;-89
2021/11/14 00:28:58;;;;;;;99.10;36.20;;;;;;;8.44;68.51;100557.69;4320536;33;34518;-89
2021/11/14 00:31:29;;;;;;;94.97;35.33;;;;;;;8.35;68.55;100561.22;4343696;33;32688;-88
2021/11/14 00:34:01;;;;;;;97.78;35.72;;;;;;;8.19;69.21;100554.44;4331366;32;33002;-87
2021/11/14 00:36:38;;;;;;;91.10;35.00;;;;;;;8.41;68.65;100541.25;4331654;33;35396;-89
2021/11/14 00:39:18;;;;;;;96.90;35.30;;;;;;;8.00;69.77;100539.00;4332331;33;33948;-88
2021/11/14 00:41:51;;;;;;;94.40;36.58;;;;;;;8.21;69.01;100544.88;4332287;33;33764;-88
2021/11/14 00:44:27;;;;;;;94.35;35.83;;;;;;;8.03;69.98;100554.53;4331784;33;36252;-89
2021/11/14 00:46:55;;;;;;;97.53;34.10;;;;;;;8.22;69.43;100545.72;4319547;33;34080;-89
2021/11/14 00:49:25;;;;;;;93.78;34.80;;;;;;;8.20;69.43;100535.37;4331138;33;33562;-88
2021/11/14 00:51:58;;;;;;;88.90;35.50;;;;;;;8.23;68.95;100534.47;4330158;33;32686;-89
2021/11/14 00:54:33;;;;;;;92.00;36.10;;;;;;;8.19;69.26;100531.94;4331718;33;34641;-88
2021/11/14 00:57:04;;;;;;;93.07;34.70;;;;;;;8.42;68.30;100524.81;4332192;33;33731;-88
2021/11/14 00:59:33;;;;;;;91.57;35.25;;;;;;;8.25;68.89;100535.34;4343316;33;34871;-89
2021/11/14 01:02:04;;;;;;;85.70;32.58;;;;;;;8.21;69.13;100542.28;4343640;33;33202;-88
2021/11/14 01:04:33;;;;;;;90.05;33.40;;;;;;;8.20;69.19;100543.16;4332000;33;34740;-88
2021/11/14 01:07:01;;;;;;;89.22;33.97;;;;;;;8.38;68.47;100538.72;4319570;33;34394;-90
2021/11/14 01:09:36;;;;;;;89.32;34.03;;;;;;;8.26;68.74;100542.28;4319977;33;34842;-88
2021/11/14 01:12:05;;;;;;;89.47;34.35;;;;;;;8.07;69.30;100538.94;4331668;33;34568;-89
2021/11/14 01:14:36;;;;;;;86.55;32.47;;;;;;;8.33;68.47;100534.38;4348292;32;34073;-89
2021/11/14 01:17:08;;;;;;;88.30;33.25;;;;;;;8.41;68.08;100520.50;4358395;32;34081;-89
2021/11/14 01:19:36;;;;;;;87.68;33.40;;;;;;;8.19;68.83;100529.31;4361349;32;34546;-89
2021/11/14 01:22:05;;;;;;;94.07;34.72;;;;;;;7.92;69.46;100533.00;4362882;32;35511;-87
2021/11/14 01:24:38;;;;;;;91.30;33.58;;;;;;;7.79;70.33;100529.66;4349640;32;33606;-88
2021/11/14 01:27:11;;;;;;;89.43;35.13;;;;;;;8.10;68.95;100538.94;4349397;32;34117;-89
2021/11/14 01:29:41;;;;;;;93.10;35.57;;;;;;;8.00;69.23;100549.37;4348823;32;34129;-88
2021/11/14 01:32:15;;;;;;;94.37;34.95;;;;;;;7.74;70.00;100548.69;4346409;32;33817;-89
2021/11/14 01:34:49;;;;;;;93.35;35.20;;;;;;;7.73;70.12;100546.97;4358247;32;34562;-89
2021/11/14 01:37:20;;;;;;;98.28;35.55;;;;;;;7.68;70.67;100539.22;4358525;32;32693;-88
2021/11/14 01:39:53;;;;;;;93.95;33.55;;;;;;;7.77;70.23;100554.72;4346402;32;34457;-88
2021/11/14 01:42:23;;;;;;;96.68;34.75;;;;;;;7.82;70.42;100545.19;4346029;32;32746;-89
2021/11/14 01:44:54;;;;;;;97.78;36.05;;;;;;;7.75;70.48;100542.63;4322419;32;32990;-89
2021/11/14 01:47:23;;;;;;;109.25;35.88;;;;;;;8.00;69.85;100530.34;4345918;32;33224;-89
2021/11/14 01:49:51;;;;;;;118.60;38.08;;;;;;;7.83;70.41;100540.84;4358148;32;33559;-89
2021/11/14 01:52:29;;;;;;;108.30;38.28;;;;;;;7.72;70.78;100543.50;4357570;32;33884;-89
2021/11/14 01:55:03;;;;;;;108.30;37.80;;;;;;;7.51;71.51;100544.50;4346298;32;33852;-88
2021/11/14 01:57:37;;;;;;;107.43;36.25;;;;;;;7.65;71.03;100542.69;4356492;32;34512;-87
2021/11/14 02:00:22;;;;;;;111.90;36.75;;;;;;;7.68;71.04;100542.69;4354284;32;34993;-87
2021/11/14 02:02:52;;;;;;;109.78;37.75;;;;;;;7.98;70.11;100547.69;4358125;32;34724;-89
2021/11/14 02:05:25;;;;;;;116.45;40.33;;;;;;;7.77;70.67;100549.53;4359034;32;33966;-89
2021/11/14 02:08:04;;;;;;;115.05;40.63;;;;;;;7.47;71.91;100563.53;4336050;32;34949;-89
2021/11/14 02:10:36;;;;;;;119.72;40.22;;;;;;;7.53;71.84;100563.50;4347659;32;34874;-88
2021/11/14 02:13:09;;;;;;;113.57;37.63;;;;;;;7.48;71.91;100557.47;4357410;32;34333;-89
2021/11/14 02:15:40;;;;;;;111.68;37.42;;;;;;;7.99;70.09;100559.75;4346409;32;33393;-88
2021/11/14 02:18:12;;;;;;;116.37;39.17;;;;;;;7.70;70.86;100566.03;4331278;33;33770;-88
2021/11/14 02:20:46;;;;;;;109.68;39.22;;;;;;;7.96;69.66;100557.19;4319249;33;33468;-89
2021/11/14 02:23:19;;;;;;;113.78;39.10;;;;;;;7.90;69.71;100549.44;4331041;33;34699;-89
2021/11/14 02:25:49;;;;;;;108.20;40.22;;;;;;;7.92;69.76;100539.94;4330888;33;34439;-89
2021/11/14 02:28:33;;;;;;;112.20;38.00;;;;;;;8.30;68.57;100547.41;4321238;33;33480;-89
2021/11/14 02:31:04;;;;;;;107.00;36.08;;;;;;;8.05;69.11;100538.09;4330578;33;33156;-88
2021/11/14 02:33:37;;;;;;;109.50;37.90;;;;;;;8.01;69.27;100538.09;4331031;33;34475;-88
2021/11/14 02:36:08;;;;;;;105.15;36.47;;;;;;;7.85;69.92;100545.16;4330584;33;34524;-88
2021/11/14 02:38:44;;;;;;;113.18;38.38;;;;;;;8.06;69.34;100543.28;4331411;33;33454;-88
2021/11/14 02:41:15;;;;;;;91.43;34.92;;;;;;;8.06;68.88;100550.19;4330966;33;34363;-89
2021/11/14 02:43:47;;;;;;;103.60;36.97;;;;;;;8.18;68.76;100548.38;4332875;33;34196;-89
2021/11/14 02:46:15;;;;;;;111.15;38.58;;;;;;;8.14;68.43;100543.22;4332652;33;33929;-88
2021/11/14 02:48:47;;;;;;;96.37;36.38;;;;;;;8.07;68.72;100549.31;4332762;33;34027;-89
2021/11/14 02:51:22;;;;;;;101.20;35.10;;;;;;;8.28;68.10;100553.47;4332200;32;34530;-88
2021/11/14 02:53:56;;;;;;;98.12;36.22;;;;;;;8.38;67.80;100567.28;4358052;32;34012;-89
2021/11/14 02:56:32;;;;;;;96.75;36.30;;;;;;;8.12;68.48;100565.72;4346975;32;33449;-88
2021/11/14 02:59:08;;;;;;;99.68;38.10;;;;;;;7.96;69.11;100564.97;4348205;32;33763;-89
2021/11/14 03:01:55;;;;;;;106.50;38.08;;;;;;;7.69;70.28;100569.47;4347016;32;34210;-88
2021/11/14 03:04:27;;;;;;;104.97;36.40;;;;;;;7.69;70.58;100566.88;4334606;32;34270;-89
2021/11/14 03:07:06;;;;;;;110.00;38.28;;;;;;;7.69;70.74;100557.34;4347166;32;33448;-88
2021/11/14 03:09:40;;;;;;;104.25;39.50;;;;;;;7.80;70.61;100556.44;4346711;32;33971;-88
2021/11/14 03:12:19;;;;;;;100.78;36.85;;;;;;;7.83;70.50;100546.91;4335814;32;33826;-89
2021/11/14 03:15:09;;;;;;;107.63;39.60;;;;;;;7.95;70.40;100555.47;4340392;32;34809;-90
2021/11/14 03:17:44;;;;;;;112.60;40.25;;;;;;;7.91;70.29;100558.94;4359080;32;34227;-88
2021/11/14 03:20:14;;;;;;;113.80;37.38;;;;;;;8.02;69.71;100558.00;4359372;32;35319;-89
2021/11/14 03:22:43;;;;;;;107.50;38.28;;;;;;;7.98;69.82;100566.69;4358679;32;34004;-88
2021/11/14 03:25:19;;;;;;;100.12;35.35;;;;;;;7.96;69.77;100576.22;4359337;32;33870;-88
2021/11/14 03:27:53;;;;;;;95.43;34.83;;;;;;;7.90;69.84;100584.06;4359096;32;34119;-89
2021/11/14 03:30:22;;;;;;;105.70;36.17;;;;;;;7.79;70.39;100575.47;4359142;32;34933;-88
2021/11/14 03:32:54;;;;;;;106.07;37.55;;;;;;;7.63;70.92;100578.16;4335226;32;33577;-89
2021/11/14 03:35:29;;;;;;;103.57;36.03;;;;;;;7.62;70.96;100586.81;4359161;32;33871;-89
2021/11/14 03:37:57;;;;;;;;;;;;;;;7.84;69.99;100586.66;4347816;32;34339;-89
2021/11/14 03:40:29;;;;;;;102.57;36.17;;;;;;;8.11;69.51;100583.03;4359287;32;34376;-88
2021/11/14 03:43:04;;;;;;;99.30;34.40;;;;;;;8.07;69.55;100575.28;4346585;32;33715;-89
2021/11/14 03:45:36;;;;;;;105.32;38.85;;;;;;;8.08;69.37;100572.66;4347277;32;33114;-88
2021/11/14 03:48:12;;;;;;;104.97;39.03;;;;;;;8.14;68.99;100572.63;4347015;32;33330;-88
2021/11/14 03:50:47;;;;;;;109.68;35.70;;;;;;;7.98;69.42;100571.88;4359391;32;34400;-88
2021/11/14 03:53:21;;;;;;;94.55;35.00;;;;;;;7.73;70.74;100572.91;4346205;32;32820;-89
2021/11/14 03:55:54;;;;;;;100.30;36.95;;;;;;;7.75;70.47;100576.34;4346291;32;32933;-88
2021/11/14 03:58:27;;;;;;;97.10;35.53;;;;;;;8.02;69.84;100578.78;4346131;32;34606;-89
2021/11/14 04:01:02;;;;;;;98.55;35.78;;;;;;;8.08;69.33;100579.59;4346874;32;33822;-89
2021/11/14 04:03:34;;;;;;;90.68;34.50;;;;;;;7.72;70.71;100585.00;4346799;32;34546;-88
2021/11/14 04:06:07;;;;;;;94.53;33.22;;;;;;;7.79;70.53;100584.12;4346532;32;34013;-87
2021/11/14 04:08:45;;;;;;;99.15;35.72;;;;;;;7.39;72.10;100584.31;4346772;32;32894;-88
2021/11/14 04:11:19;;;;;;;98.15;37.70;;;;;;;7.63;71.24;100582.47;4343949;32;33818;-88
2021/11/14 04:13:53;;;;;;;95.07;35.00;;;;;;;7.54;71.47;100575.63;4333200;32;33209;-89
2021/11/14 04:16:23;;;;;;;88.30;32.70;;;;;;;7.75;71.00;100578.94;4346715;32;34568;-88
2021/11/14 04:18:55;;;;;;;89.47;34.08;;;;;;;7.47;72.22;100569.59;4345690;32;33395;-88
2021/11/14 04:21:29;;;;;;;92.10;35.40;;;;;;;7.95;70.54;100576.22;4332664;33;33990;-87
2021/11/14 04:23:58;;;;;;;92.15;33.42;;;;;;;7.84;70.65;100574.59;4332084;33;34157;-88
2021/11/14 04:26:29;;;;;;;86.37;34.60;;;;;;;8.16;69.65;100570.03;4343776;33;32942;-88
2021/11/14 04:29:03;;;;;;;89.03;32.97;;;;;;;7.86;70.51;100571.97;4331850;33;33226;-88
2021/11/14 04:31:37;;;;;;;91.30;33.08;;;;;;;7.66;71.00;100580.72;4332326;33;34913;-88
2021/11/14 04:34:11;;;;;;;98.03;34.90;;;;;;;7.94;69.69;100588.34;4344012;32;34402;-88
2021/11/14 04:36:42;;;;;;;87.65;34.17;;;;;;;7.61;70.88;100590.25;4320599;33;33787;-89
2021/11/14 04:39:15;;;;;;;87.97;32.35;;;;;;;7.42;71.45;100580.84;4332034;33;32775;-87
2021/11/14 04:41:43;;;;;;;86.60;33.25;;;;;;;7.66;70.97;100587.66;4343735;33;33680;-88
2021/11/14 04:44:11;;;;;;;82.05;33.60;;;;;;;7.72;70.69;100592.78;4331311;33;33712;-89
2021/11/14 04:46:40;;;;;;;83.50;32.05;;;;;;;7.57;71.02;100590.31;4340731;32;34271;-87
2021/11/14 04:49:15;;;;;;;88.00;31.67;;;;;;;7.51;71.39;100591.16;4343759;33;34255;-89
2021/11/14 04:51:51;;;;;;;83.05;33.03;;;;;;;7.41;71.94;100581.72;4332838;33;34461;-88
2021/11/14 04:54:25;;;;;;;91.07;33.55;;;;;;;7.44;71.87;100581.72;4333164;33;34872;-89
2021/11/14 04:56:54;;;;;;;80.70;32.08;;;;;;;7.67;71.08;100574.69;4319921;33;33327;-89
2021/11/14 04:59:25;;;;;;;79.10;30.95;;;;;;;7.79;70.49;100572.87;4344315;33;32993;-88
2021/11/14 05:01:54;;;;;;;86.72;31.75;;;;;;;7.93;69.60;100572.78;4331696;33;33647;-88
2021/11/14 05:04:25;;;;;;;87.07;32.38;;;;;;;7.73;70.61;100578.09;4319992;33;34208;-88
2021/11/14 05:06:56;;;;;;;83.22;32.05;;;;;;;7.79;70.21;100575.47;4331148;33;34586;-87
2021/11/14 05:09:31;;;;;;;85.87;33.17;;;;;;;8.00;69.59;100590.91;4331266;33;34333;-88
2021/11/14 05:12:06;;;;;;;71.47;29.65;;;;;;;8.41;68.28;100595.78;4343574;33;33549;-88
2021/11/14 05:14:36;;;;;;;79.65;31.50;;;;;;;8.18;68.80;100602.03;4337367;32;35015;-88
2021/11/14 05:17:06;;;;;;;87.35;30.65;;;;;;;8.38;67.91;100598.44;4334457;32;32928;-87
2021/11/14 05:19:34;;;;;;;79.93;31.55;;;;;;;8.07;69.09;100603.81;4359052;32;33705;-87
2021/11/14 05:22:02;;;;;;;84.37;32.03;;;;;;;8.01;69.46;100612.53;4358588;32;33672;-89
2021/11/14 05:24:30;;;;;;;82.05;30.37;;;;;;;7.76;70.54;100610.06;4358595;32;32837;-88
2021/11/14 05:27:03;;;;;;;83.30;31.80;;;;;;;8.22;68.88;100600.25;4358682;32;33677;-88
2021/11/14 05:29:32;;;;;;;84.45;31.60;;;;;;;7.98;69.47;100608.22;4346246;32;33187;-88
2021/11/14 05:32:06;;;;;;;80.15;31.02;;;;;;;7.80;70.31;100606.56;4358209;32;34371;-87
2021/11/14 05:34:35;;;;;;;81.10;30.55;;;;;;;7.95;69.75;100613.44;4346491;32;35293;-87
2021/11/14 05:37:07;;;;;;;;;;;;;;;7.94;69.61;100613.44;4346315;32;33826;-89
2021/11/14 05:39:36;;;;;;;75.30;28.42;;;;;;;7.83;69.86;100616.97;4346585;32;33754;-86
2021/11/14 05:42:04;;;;;;;76.18;30.65;;;;;;;8.07;69.33;100617.69;4346828;32;33172;-89
2021/11/14 05:44:32;;;;;;;75.37;29.37;;;;;;;8.22;68.85;100608.03;4347663;32;33901;-88
2021/11/14 05:47:03;;;;;;;74.32;31.27;;;;;;;8.19;68.70;100609.81;4348055;32;32836;-88
2021/11/14 05:49:31;;;;;;;76.53;31.33;;;;;;;8.38;68.20;100611.41;4360006;32;33566;-88
2021/11/14 05:52:02;;;;;;;76.12;31.08;;;;;;;8.32;68.44;100618.38;4347355;32;34956;-88
2021/11/14 05:54:32;;;;;;;74.25;29.65;;;;;;;8.13;69.10;100617.63;4358496;32;33632;-87
2021/11/14 05:57:00;;;;;;;76.00;30.80;;;;;;;8.06;69.31;100617.66;4346533;32;33842;-87
2021/11/14 06:02:08;;;;;;;81.47;30.95;;;;;;;8.15;68.74;100626.28;4358257;32;33322;-88
2021/11/14 06:07:27;;;;;;;72.82;29.77;;;;;;;8.51;67.55;100639.03;4358433;32;33548;-88
2021/11/14 06:09:57;;;;;;;73.53;31.10;;;;;;;8.19;68.48;100642.69;4346357;32;34558;-88
2021/11/14 06:12:28;;;;;;;;;;;;;;;8.28;68.33;100641.75;4358341;32;33635;-87
2021/11/14 06:14:57;;;;;;;77.80;29.05;;;;;;;8.35;67.84;100646.91;4338321;33;32816;-88
2021/11/14 06:17:27;;;;;;;79.05;31.98;;;;;;;8.24;68.56;100656.50;4330350;33;33109;-88
2021/11/14 06:19:55;;;;;;;71.07;28.48;;;;;;;8.08;69.03;100660.91;4330365;33;33720;-88
2021/11/14 06:22:24;;;;;;;78.03;30.88;;;;;;;8.33;68.40;100665.97;4330841;33;33308;-87
2021/11/14 06:24:51;;;;;;;74.70;30.08;;;;;;;8.33;68.23;100660.78;4330751;33;34296;-88
2021/11/14 06:27:22;;;;;;;75.95;30.12;;;;;;;8.34;68.36;100670.28;4331140;33;32694;-88
2021/11/14 06:29:52;;;;;;;76.87;30.92;;;;;;;8.22;68.79;100667.75;4331105;33;33845;-88
2021/11/14 06:32:20;;;;;;;73.03;32.53;;;;;;;8.42;68.14;100663.31;4330856;33;33418;-88
2021/11/14 06:34:48;;;;;;;72.35;30.20;;;;;;;8.61;67.49;100670.97;4342792;32;35144;-88
2021/11/14 06:37:18;;;;;;;76.43;30.92;;;;;;;8.38;68.08;100672.00;4342820;33;33999;-87
2021/11/14 06:39:46;;;;;;;75.97;29.73;;;;;;;8.56;67.67;100665.81;4343710;33;34427;-87
2021/11/14 06:42:14;;;;;;;76.50;30.92;;;;;;;8.32;68.76;100674.63;4331417;33;33942;-88
2021/11/14 06:44:44;;;;;;;80.40;29.75;;;;;;;8.40;68.29;100667.63;4342921;33;33842;-87
2021/11/14 06:47:14;;;;;;;72.47;30.92;;;;;;;8.39;68.37;100675.44;4342625;33;32851;-88
2021/11/14 06:49:44;;;;;;;69.43;30.92;;;;;;;8.49;68.14;100677.13;4318501;33;34599;-87
2021/11/14 06:52:14;;;;;;;68.87;29.25;;;;;;;8.38;68.58;100686.72;4318303;33;33767;-88
2021/11/14 06:54:42;;;;;;;63.95;28.35;;;;;;;8.40;68.38;100685.81;4342364;33;33798;-88
2021/11/14 06:57:11;;;;;;;70.85;31.27;;;;;;;8.45;68.06;100696.19;4342200;33;33942;-89
2021/11/14 06:59:39;;;;;;;78.30;30.33;;;;;;;8.24;68.68;100687.63;4330467;33;34253;-88
2021/11/14 07:02:08;;;;;;;71.75;28.27;;;;;;;8.30;68.92;100684.16;4342444;33;34367;-88
2021/11/14 07:04:37;;;;;;;73.10;29.45;;;;;;;8.35;68.75;100685.84;4330529;33;33759;-88
2021/11/14 07:07:06;;;;;;;68.72;28.92;;;;;;;8.26;69.17;100687.66;4342346;33;32968;-87
2021/11/14 07:09:34;;;;;;;66.12;29.02;;;;;;;8.56;67.92;100684.00;4330398;33;33351;-88
2021/11/14 07:12:03;;;;;;;72.30;30.42;;;;;;;8.50;68.24;100684.06;4342204;33;34100;-87
2021/11/14 07:14:31;;;;;;;70.70;28.52;;;;;;;8.65;67.89;100678.72;4322605;32;33220;-88
2021/11/14 07:16:59;;;;;;;69.45;28.85;;;;;;;8.67;67.95;100683.94;4357167;32;34225;-89
2021/11/14 07:19:29;;;;;;;69.30;29.08;;;;;;;8.50;68.41;100682.31;4344948;32;34330;-88
2021/11/14 07:22:00;;;;;;;62.42;28.95;;;;;;;8.34;68.73;100680.69;4357363;32;33252;-88
2021/11/14 07:24:29;;;;;;;65.28;29.30;;;;;;;8.67;67.58;100678.75;4356385;32;33822;-87
2021/11/14 07:26:57;;;;;;;69.15;29.73;;;;;;;8.59;67.80;100685.72;4344461;32;32802;-88
2021/11/14 07:29:26;;;;;;;59.63;27.05;;;;;;;8.53;68.14;100689.22;4358282;32;32920;-87
2021/11/14 07:31:55;;;;;;;59.17;25.95;;;;;;;8.91;66.92;100688.06;4347448;32;35062;-89
2021/11/14 07:34:25;;;;;;;58.63;26.15;;;;;;;8.83;66.88;100692.47;4358963;32;34564;-87
2021/11/14 07:36:52;;;;;;;62.38;29.60;;;;;;;8.86;66.71;100689.84;4341992;32;33520;-88
2021/11/14 07:39:22;;;;;;;58.47;27.25;;;;;;;8.95;66.54;100687.16;4359543;32;34368;-89
2021/11/14 07:41:50;;;;;;;60.90;29.20;;;;;;;9.08;66.27;100692.22;4347888;32;33543;-88
2021/11/14 07:44:19;;;;;;;61.72;28.27;;;;;;;9.01;66.21;100687.09;4359775;32;34848;-87
2021/11/14 07:46:50;;;;;;;59.58;26.45;;;;;;;9.09;66.18;100684.41;4358839;32;33875;-88
2021/11/14 07:49:20;;;;;;;57.65;27.35;;;;;;;8.97;66.45;100685.38;4359427;32;34208;-87
2021/11/14 07:51:48;;;;;;;56.88;25.73;;;;;;;9.18;66.03;100691.28;4359338;32;33576;-88
2021/11/14 07:54:19;;;;;;;58.95;26.17;;;;;;;8.98;66.42;100692.31;4346994;32;34086;-88
2021/11/14 07:56:47;;;;;;;55.45;26.65;;;;;;;8.98;66.69;100692.31;4358644;32;33999;-88
2021/11/14 07:59:15;;;;;;;60.58;28.17;;;;;;;8.84;67.05;100695.06;4346783;32;32885;-88
2021/11/14 08:01:44;;;;;;;57.40;26.27;;;;;;;8.99;66.65;100691.44;4346669;32;34343;-89
2021/11/14 08:04:20;;;;;;;55.10;26.70;;;;;;;9.15;65.85;100696.50;4346295;32;33988;-87
2021/11/14 08:06:51;;;;;;;54.97;25.17;;;;;;;9.32;65.27;100694.59;4359549;32;34238;-87
2021/11/14 08:09:19;;;;;;;55.50;27.50;;;;;;;9.50;64.53;100692.66;4346589;32;33937;-89
2021/11/14 08:11:50;;;;;;;58.13;27.75;;;;;;;9.35;64.99;100699.75;4359112;32;33151;-88
2021/11/14 08:14:18;;;;;;;59.05;27.42;;;;;;;9.52;64.72;100694.37;4355661;32;33400;-88
2021/11/14 08:16:46;;;;;;;60.28;26.87;;;;;;;9.47;64.70;100703.97;4343921;33;33849;-88
2021/11/14 08:19:14;;;;;;;61.33;29.52;;;;;;;9.58;64.29;100701.25;4331340;33;33952;-87
2021/11/14 08:21:43;;;;;;;59.28;28.55;;;;;;;9.27;64.95;100704.19;4330671;33;35206;-88
2021/11/14 08:24:11;;;;;;;59.25;27.73;;;;;;;9.43;64.86;100699.69;4343930;33;34071;-88
2021/11/14 08:26:39;;;;;;;55.33;26.98;;;;;;;9.55;64.24;100703.03;4344393;33;33043;-87
2021/11/14 08:29:09;;;;;;;59.85;29.55;;;;;;;9.55;63.99;100706.50;4339455;33;34826;-88
2021/11/14 08:31:38;;;;;;;59.75;30.08;;;;;;;9.39;64.17;100713.59;4332327;33;33446;-88
2021/11/14 08:34:06;;;;;;;56.75;27.37;;;;;;;9.12;65.36;100707.78;4343935;32;33119;-89
2021/11/14 08:36:36;;;;;;;61.00;28.05;;;;;;;9.25;65.19;100708.53;4343763;33;34028;-88
2021/11/14 08:39:04;;;;;;;62.38;29.42;;;;;;;9.09;65.74;100715.59;4319208;33;33258;-89
2021/11/14 08:41:35;;;;;;;57.38;28.23;;;;;;;9.22;65.40;100721.56;4343162;33;33025;-89
2021/11/14 08:44:04;;;;;;;55.47;28.80;;;;;;;9.03;65.84;100716.53;4343127;33;34630;-88
2021/11/14 08:46:37;;;;;;;58.70;29.23;;;;;;;9.06;65.92;100718.25;4331609;33;34184;-87
2021/11/14 08:49:07;;;;;;;64.40;29.67;;;;;;;9.17;65.71;100723.34;4332072;33;33229;-88
2021/11/14 08:51:36;;;;;;;63.20;29.85;;;;;;;9.69;64.05;100730.62;4331585;33;33843;-88
2021/11/14 08:54:08;;;;;;;56.75;29.00;;;;;;;9.80;63.53;100737.44;4343199;33;33270;-87
2021/11/14 08:56:36;;;;;;;58.50;30.23;;;;;;;9.59;64.33;100736.78;4343908;33;32865;-88
2021/11/14 08:59:04;;;;;;;60.40;29.98;;;;;;;9.78;63.52;100741.78;4343783;33;33850;-88
2021/11/14 09:01:33;;;;;;;53.67;27.13;;;;;;;9.83;63.43;100745.22;4343699;33;32911;-88
2021/11/14 09:04:08;;;;;;;58.85;28.50;;;;;;;9.83;63.60;100747.81;4319872;33;33817;-89
2021/11/14 09:06:40;;;;;;;57.17;27.20;;;;;;;9.97;62.93;100750.22;4331653;33;34143;-87
2021/11/14 09:09:13;;;;;;;62.00;29.08;;;;;;;9.77;63.45;100745.25;4331602;33;32990;-88
2021/11/14 09:11:45;;;;;;;62.30;29.60;;;;;;;10.04;62.64;100749.28;4343166;33;35552;-88
2021/11/14 09:14:17;;;;;;;59.20;29.48;;;;;;;9.86;63.52;100747.75;4334720;32;33210;-88
2021/11/14 09:16:51;;;;;;;59.95;28.98;;;;;;;10.05;62.81;100740.59;4358235;32;34001;-88
2021/11/14 09:19:20;;;;;;;60.30;28.62;;;;;;;10.45;61.67;100739.22;4346178;32;33583;-88
2021/11/14 09:21:49;;;;;;;54.55;27.58;;;;;;;10.24;62.07;100740.34;4358409;32;34321;-88
2021/11/14 09:24:19;;;;;;;58.33;28.85;;;;;;;10.42;61.61;100737.50;4358176;32;33608;-89
2021/11/14 09:26:48;;;;;;;59.03;30.08;;;;;;;10.27;61.50;100735.94;4346012;32;32558;-88
2021/11/14 09:29:18;;;;;;;60.90;30.45;;;;;;;10.19;61.43;100743.88;4358463;32;33624;-86
2021/11/14 09:31:48;;;;;;;57.75;28.62;;;;;;;10.45;60.87;100736.59;4358327;32;34524;-88
2021/11/14 09:34:17;;;;;;;56.17;27.75;;;;;;;10.34;61.08;100736.72;4345509;32;33918;-88
2021/11/14 09:36:47;;;;;;;56.67;28.92;;;;;;;10.45;60.78;100747.03;4345138;32;33566;-89
2021/11/14 09:39:16;;;;;;;59.78;29.12;;;;;;;10.69;60.17;100744.06;4358175;32;33900;-88
2021/11/14 09:41:47;;;;;;;62.78;30.00;;;;;;;10.33;61.08;100741.09;4358367;32;33153;-87
2021/11/14 09:44:17;;;;;;;59.85;30.98;;;;;;;10.66;60.39;100738.91;4346056;32;34518;-87
2021/11/14 09:46:49;;;;;;;56.17;28.98;;;;;;;10.78;59.93;100739.59;4337887;33;32935;-89
2021/11/14 09:49:29;;;;;;;57.78;29.80;;;;;;;10.58;60.73;100745.09;4317499;33;32971;-88
2021/11/14 09:52:04;;;;;;;54.40;29.15;;;;;;;10.77;59.95;100740.47;4327646;33;34743;-88
2021/11/14 09:54:34;;;;;;;54.65;27.85;;;;;;;10.57;60.65;100746.00;4328775;33;33128;-88
2021/11/14 09:57:03;;;;;;;58.22;30.80;;;;;;;10.91;59.46;100743.72;4304453;33;34434;-87
2021/11/14 09:59:31;;;;;;;54.40;29.27;;;;;;;10.95;59.61;100739.31;4316717;33;33324;-87
2021/11/14 10:02:00;;;;;;;61.05;30.37;;;;;;;10.86;59.72;100733.38;4316399;33;34647;-87
2021/11/14 10:04:30;;;;;;;53.57;27.97;;;;;;;10.87;59.70;100726.41;4335806;33;33698;-88
2021/11/14 10:07:11;;;;;;;55.63;29.20;;;;;;;11.05;59.08;100724.38;4343373;32;33383;-88
2021/11/14 10:09:44;;;;;;;54.33;27.15;;;;;;;11.27;58.46;100728.31;4345183;33;34416;-88
2021/11/14 10:12:23;;;;;;;59.08;29.58;;;;;;;11.32;57.90;100725.66;4344624;33;34215;-88
2021/11/14 10:15:15;;;;;;;55.47;29.45;;;;;;;11.12;58.72;100728.63;4358520;32;34317;-89
2021/11/14 10:17:48;;;;;;;;;;;;;;;11.03;59.04;100722.66;4346682;32;33420;-88
2021/11/14 10:20:29;;;;;;;53.75;27.58;;;;;;;11.40;58.13;100722.91;4334437;32;33730;-89
2021/11/14 10:23:04;;;;;;;56.05;27.67;;;;;;;11.24;57.85;100717.09;4358851;32;35955;-88
2021/11/14 10:25:34;;;;;;;54.35;28.45;;;;;;;11.68;56.74;100724.06;4357999;32;33444;-87
2021/11/14 10:28:04;;;;;;;51.45;27.87;;;;;;;11.51;57.12;100716.59;4350489;32;32879;-87
2021/11/14 10:30:35;;;;;;;53.30;27.77;;;;;;;11.73;56.71;100710.09;4360505;32;34199;-87
2021/11/14 10:33:08;;;;;;;58.63;29.95;;;;;;;11.81;56.41;100710.78;4346291;32;35150;-88
2021/11/14 10:35:39;;;;;;;55.63;28.77;;;;;;;11.93;56.26;100720.12;4345651;32;33213;-88
2021/11/14 10:38:14;;;;;;;55.60;29.45;;;;;;;11.88;56.81;100709.75;4345546;32;33989;-90
2021/11/14 10:40:46;;;;;;;58.72;29.87;;;;;;;11.78;56.60;100718.66;4352404;32;34704;-88
2021/11/14 10:43:22;;;;;;;52.00;27.83;;;;;;;11.59;57.31;100721.63;4331072;33;33661;-88
2021/11/14 10:45:51;;;;;;;53.28;27.95;;;;;;;11.71;56.75;100720.53;4330414;33;35101;-88
2021/11/14 10:48:27;;;;;;;53.33;29.52;;;;;;;11.76;56.62;100725.69;4343710;32;33213;-88
2021/11/14 10:51:02;;;;;;;51.85;28.08;;;;;;;11.88;56.25;100717.59;4343798;32;32955;-87
2021/11/14 10:53:40;;;;;;;54.22;29.48;;;;;;;11.68;56.74;100720.59;4330145;33;33718;-88
2021/11/14 10:56:11;;;;;;;55.78;28.98;;;;;;;11.96;56.33;100720.94;4342943;32;33442;-89
2021/11/14 10:58:46;;;;;;;48.42;28.10;;;;;;;11.82;56.31;100721.19;4330917;33;34797;-89
2021/11/14 11:01:17;;;;;;;52.55;28.02;;;;;;;12.06;55.85;100712.91;4343127;32;32820;-88
2021/11/14 11:03:52;;;;;;;46.95;26.98;;;;;;;12.02;56.11;100710.34;4331928;33;32743;-89
2021/11/14 11:06:27;;;;;;;50.12;27.92;;;;;;;12.41;54.73;100709.50;4331895;33;33571;-88
2021/11/14 11:09:03;;;;;;;46.47;25.60;;;;;;;12.66;53.73;100703.72;4332739;33;32905;-87
2021/11/14 11:11:35;;;;;;;49.05;26.48;;;;;;;12.85;53.19;100699.72;4345251;32;33922;-88
2021/11/14 11:14:12;;;;;;;45.00;26.35;;;;;;;12.97;53.45;100690.72;4336041;32;33763;-87
2021/11/14 11:16:49;;;;;;;47.65;26.70;;;;;;;12.72;53.10;100693.09;4358762;32;36399;-89
2021/11/14 11:19:25;;;;;;;48.55;27.23;;;;;;;13.00;53.16;100682.81;4347484;32;33336;-88
2021/11/14 11:22:02;;;;;;;46.55;26.92;;;;;;;13.46;51.98;100680.72;4359079;32;33810;-87
2021/11/14 11:24:35;;;;;;;43.08;25.45;;;;;;;13.48;51.79;100683.28;4359236;32;34233;-89
2021/11/14 11:27:07;;;;;;;46.53;26.17;;;;;;;13.43;50.92;100685.19;4346744;32;35134;-88
2021/11/14 11:29:59;;;;;;;44.67;26.58;;;;;;;13.13;51.99;100685.94;4359322;32;33356;-89
2021/11/14 11:32:30;;;;;;;50.90;28.45;;;;;;;13.51;51.02;100681.47;4359202;32;33336;-88
2021/11/14 11:35:01;;;;;;;47.67;25.73;;;;;;;13.38;51.53;100680.09;4358564;32;34041;-88
2021/11/14 11:37:39;;;;;;;48.75;27.17;;;;;;;13.55;51.12;100682.25;4347008;32;33848;-88
2021/11/14 11:40:14;;;;;;;44.40;26.40;;;;;;;13.70;51.16;100686.16;4346768;32;33323;-89